Terminal Aerodrome Forecast
Issued by NWS Cleveland, OH

Home | Current Version | Previous Version | Graphics & Text | Print | Product List | Glossary Off
Versions: 1 2 3 4 5 6 7 8 9 10 11 12 13 14 15 16 17

000
FTUS41 KCLE 240500
TAFYNG
TAF
KYNG 240536Z 2406/2506 VRB03KT P6SM OVC025
      TEMPO 2406/2410 OVC015
     FM241000 35008KT P6SM OVC025
      TEMPO 2410/2412 4SM BR
     FM241500 01008KT P6SM BKN030
     FM241700 34007KT P6SM SCT050
     FM250100 VRB03KT P6SM SKC=

USA.gov is the U.S. government's official web portal to all federal, state and local government web resources and services.